Port Fourchon, Louisiana
Current Conditions -  °F | °C
As of 4:15 PM on Thursday 23 Oct 2014 (Local Time) from KXPY Reporting Station
Clear Clear  
Wind Chill: 73°   Ceiling: Unl
Heat Index: 73°   Visibility: 10mi
Dew Point: 55°   Wind: 10mph
Humidity: 53%   Direction: 60°ENE
Pressure: 30.05"   Gusts: 17mph
Location:  29.12°N, 90.2°W
Report Text: KXPY 232115Z AUTO 06009G15KT 10SM CLR 23/13 A3005 RMK A01
Loading
Personal Weather Stations






























Interactive Weather Map
Tropical Storm Tracking
New forecast layout! Learn more

10-Day Weather Forecast

Advertisements
Track Severe Weather on mobile